Brno, Czech Republic
Current Conditions -  °F | °C
As of 10:00 PM on Thursday 23 Oct 2014 (Local Time) from LKTB Reporting Station
Broken Clouds Broken Clouds  
Wind Chill: 40°   Ceiling: 2100
Heat Index: 46°   Visibility: 6mi
Dew Point: 39°   Wind: 14mph
Humidity: 76%   Direction: 20°NNE
Pressure: 30.06"   Gusts: NA
Location:  49.2°N, 16.61°E
Report Text: LKTB 232000Z 02012KT 9999 BKN021 08/04 Q1018 NOSIG
Loading
Personal Weather Stations






























Interactive Weather Map
Tropical Storm Tracking
New forecast layout! Learn more

10-Day Weather Forecast

Advertisements
Track Severe Weather on mobile